sensor_id;sensor_type;location;lat;lon;timestamp;P1;durP1;ratioP1;P2;durP2;ratioP2
18505;SDS011;9382;53.242;10.438;2022-12-17T00:00:41;106.33;;;51.30;;
18505;SDS011;9382;53.242;10.438;2022-12-17T00:03:25;108.40;;;52.17;;
18505;SDS011;9382;53.242;10.438;2022-12-17T00:06:09;113.30;;;54.00;;
18505;SDS011;9382;53.242;10.438;2022-12-17T00:08:55;108.70;;;53.00;;
18505;SDS011;9382;53.242;10.438;2022-12-17T00:11:39;113.43;;;54.53;;
18505;SDS011;9382;53.242;10.438;2022-12-17T00:14:23;108.13;;;52.27;;
18505;SDS011;9382;53.242;10.438;2022-12-17T00:17:07;111.07;;;52.77;;
18505;SDS011;9382;53.242;10.438;2022-12-17T00:19:51;108.03;;;52.47;;
18505;SDS011;9382;53.242;10.438;2022-12-17T00:22:35;103.63;;;54.17;;
18505;SDS011;9382;53.242;10.438;2022-12-17T00:25:21;103.87;;;52.80;;
18505;SDS011;9382;53.242;10.438;2022-12-17T00:28:08;99.33;;;50.60;;
18505;SDS011;9382;53.242;10.438;2022-12-17T00:30:52;104.50;;;53.40;;
18505;SDS011;9382;53.242;10.438;2022-12-17T00:33:36;98.37;;;53.80;;
18505;SDS011;9382;53.242;10.438;2022-12-17T00:36:21;106.17;;;53.57;;
18505;SDS011;9382;53.242;10.438;2022-12-17T00:39:05;109.43;;;55.33;;
18505;SDS011;9382;53.242;10.438;2022-12-17T00:41:50;101.17;;;52.80;;
18505;SDS011;9382;53.242;10.438;2022-12-17T00:44:35;115.90;;;52.93;;
18505;SDS011;9382;53.242;10.438;2022-12-17T00:47:19;102.90;;;52.50;;
18505;SDS011;9382;53.242;10.438;2022-12-17T00:50:03;107.90;;;52.43;;
18505;SDS011;9382;53.242;10.438;2022-12-17T00:52:50;104.77;;;49.10;;
18505;SDS011;9382;53.242;10.438;2022-12-17T00:55:35;100.70;;;48.67;;
18505;SDS011;9382;53.242;10.438;2022-12-17T00:58:32;99.87;;;49.70;;
18505;SDS011;9382;53.242;10.438;2022-12-17T01:01:16;101.97;;;49.90;;
18505;SDS011;9382;53.242;10.438;2022-12-17T01:04:00;104.80;;;48.17;;
18505;SDS011;9382;53.242;10.438;2022-12-17T01:06:45;101.57;;;48.90;;
18505;SDS011;9382;53.242;10.438;2022-12-17T01:09:29;98.50;;;48.53;;
18505;SDS011;9382;53.242;10.438;2022-12-17T01:12:13;100.17;;;47.87;;
18505;SDS011;9382;53.242;10.438;2022-12-17T01:14:58;101.10;;;48.23;;
18505;SDS011;9382;53.242;10.438;2022-12-17T01:17:43;100.53;;;48.50;;
18505;SDS011;9382;53.242;10.438;2022-12-17T01:20:27;88.37;;;43.40;;
18505;SDS011;9382;53.242;10.438;2022-12-17T01:23:11;86.87;;;44.90;;
18505;SDS011;9382;53.242;10.438;2022-12-17T01:25:55;89.47;;;44.43;;
18505;SDS011;9382;53.242;10.438;2022-12-17T01:28:40;87.03;;;43.77;;
18505;SDS011;9382;53.242;10.438;2022-12-17T01:31:26;89.97;;;47.43;;
18505;SDS011;9382;53.242;10.438;2022-12-17T01:34:11;92.63;;;45.87;;
18505;SDS011;9382;53.242;10.438;2022-12-17T01:36:55;90.37;;;44.53;;
18505;SDS011;9382;53.242;10.438;2022-12-17T01:39:40;88.77;;;44.20;;
18505;SDS011;9382;53.242;10.438;2022-12-17T01:42:24;84.50;;;43.83;;
18505;SDS011;9382;53.242;10.438;2022-12-17T01:45:09;82.10;;;43.63;;
18505;SDS011;9382;53.242;10.438;2022-12-17T01:47:57;82.00;;;42.77;;
18505;SDS011;9382;53.242;10.438;2022-12-17T01:50:45;86.80;;;41.67;;
18505;SDS011;9382;53.242;10.438;2022-12-17T01:53:33;84.37;;;40.50;;
18505;SDS011;9382;53.242;10.438;2022-12-17T01:56:19;81.60;;;43.50;;
18505;SDS011;9382;53.242;10.438;2022-12-17T01:59:05;80.83;;;42.97;;
18505;SDS011;9382;53.242;10.438;2022-12-17T02:01:59;82.20;;;41.23;;
18505;SDS011;9382;53.242;10.438;2022-12-17T02:04:45;82.07;;;41.57;;
18505;SDS011;9382;53.242;10.438;2022-12-17T02:07:33;91.93;;;41.97;;
18505;SDS011;9382;53.242;10.438;2022-12-17T02:10:30;79.57;;;41.33;;
18505;SDS011;9382;53.242;10.438;2022-12-17T02:13:23;82.23;;;42.03;;
18505;SDS011;9382;53.242;10.438;2022-12-17T02:16:14;80.17;;;41.13;;
18505;SDS011;9382;53.242;10.438;2022-12-17T02:19:05;77.50;;;39.80;;
18505;SDS011;9382;53.242;10.438;2022-12-17T02:22:02;87.33;;;40.63;;
18505;SDS011;9382;53.242;10.438;2022-12-17T02:24:53;84.77;;;41.53;;
18505;SDS011;9382;53.242;10.438;2022-12-17T02:27:42;85.20;;;43.37;;
18505;SDS011;9382;53.242;10.438;2022-12-17T02:30:28;81.60;;;40.57;;
18505;SDS011;9382;53.242;10.438;2022-12-17T02:33:14;81.13;;;43.23;;
18505;SDS011;9382;53.242;10.438;2022-12-17T02:36:01;83.70;;;42.83;;
18505;SDS011;9382;53.242;10.438;2022-12-17T02:38:48;88.37;;;43.10;;
18505;SDS011;9382;53.242;10.438;2022-12-17T02:41:35;84.47;;;42.23;;
18505;SDS011;9382;53.242;10.438;2022-12-17T02:44:24;82.00;;;41.00;;
18505;SDS011;9382;53.242;10.438;2022-12-17T02:47:10;79.93;;;38.80;;
18505;SDS011;9382;53.242;10.438;2022-12-17T02:49:56;84.33;;;42.23;;
18505;SDS011;9382;53.242;10.438;2022-12-17T02:52:41;84.77;;;40.13;;
18505;SDS011;9382;53.242;10.438;2022-12-17T02:55:28;82.60;;;38.97;;
18505;SDS011;9382;53.242;10.438;2022-12-17T02:58:13;83.30;;;40.07;;
18505;SDS011;9382;53.242;10.438;2022-12-17T03:01:01;81.70;;;41.13;;
18505;SDS011;9382;53.242;10.438;2022-12-17T03:03:45;84.47;;;42.30;;
18505;SDS011;9382;53.242;10.438;2022-12-17T03:06:29;80.90;;;39.13;;
18505;SDS011;9382;53.242;10.438;2022-12-17T03:09:14;76.07;;;40.47;;
18505;SDS011;9382;53.242;10.438;2022-12-17T03:11:58;76.20;;;40.63;;
18505;SDS011;9382;53.242;10.438;2022-12-17T03:14:42;79.23;;;40.77;;
18505;SDS011;9382;53.242;10.438;2022-12-17T03:17:28;74.80;;;38.80;;
18505;SDS011;9382;53.242;10.438;2022-12-17T03:20:13;77.57;;;39.20;;
18505;SDS011;9382;53.242;10.438;2022-12-17T03:23:00;76.73;;;40.73;;
18505;SDS011;9382;53.242;10.438;2022-12-17T03:25:45;82.63;;;41.27;;
18505;SDS011;9382;53.242;10.438;2022-12-17T03:28:29;83.27;;;40.53;;
18505;SDS011;9382;53.242;10.438;2022-12-17T03:31:13;77.03;;;41.37;;
18505;SDS011;9382;53.242;10.438;2022-12-17T03:33:59;78.37;;;38.40;;
18505;SDS011;9382;53.242;10.438;2022-12-17T03:36:43;78.33;;;38.57;;
18505;SDS011;9382;53.242;10.438;2022-12-17T03:39:27;78.90;;;41.10;;
18505;SDS011;9382;53.242;10.438;2022-12-17T03:42:12;77.27;;;39.47;;
18505;SDS011;9382;53.242;10.438;2022-12-17T03:44:56;75.80;;;40.17;;
18505;SDS011;9382;53.242;10.438;2022-12-17T03:47:40;77.33;;;39.50;;
18505;SDS011;9382;53.242;10.438;2022-12-17T03:50:26;77.67;;;40.47;;
18505;SDS011;9382;53.242;10.438;2022-12-17T03:53:09;79.80;;;39.43;;
18505;SDS011;9382;53.242;10.438;2022-12-17T03:55:54;78.10;;;40.10;;
18505;SDS011;9382;53.242;10.438;2022-12-17T03:58:38;80.30;;;40.53;;
18505;SDS011;9382;53.242;10.438;2022-12-17T04:01:22;77.53;;;41.40;;
18505;SDS011;9382;53.242;10.438;2022-12-17T04:04:07;78.00;;;38.27;;
18505;SDS011;9382;53.242;10.438;2022-12-17T04:06:52;77.57;;;39.33;;
18505;SDS011;9382;53.242;10.438;2022-12-17T04:09:37;74.03;;;39.33;;
18505;SDS011;9382;53.242;10.438;2022-12-17T04:12:26;74.07;;;40.40;;
18505;SDS011;9382;53.242;10.438;2022-12-17T04:15:11;74.63;;;40.00;;
18505;SDS011;9382;53.242;10.438;2022-12-17T04:17:55;79.30;;;41.30;;
18505;SDS011;9382;53.242;10.438;2022-12-17T04:20:39;73.43;;;38.50;;
18505;SDS011;9382;53.242;10.438;2022-12-17T04:23:25;73.90;;;38.73;;
18505;SDS011;9382;53.242;10.438;2022-12-17T04:26:09;75.47;;;39.43;;
18505;SDS011;9382;53.242;10.438;2022-12-17T04:28:53;76.67;;;39.10;;
18505;SDS011;9382;53.242;10.438;2022-12-17T04:31:37;82.90;;;39.57;;
18505;SDS011;9382;53.242;10.438;2022-12-17T04:34:22;76.77;;;39.90;;
18505;SDS011;9382;53.242;10.438;2022-12-17T04:37:06;76.63;;;38.30;;
18505;SDS011;9382;53.242;10.438;2022-12-17T04:39:52;77.57;;;37.80;;
18505;SDS011;9382;53.242;10.438;2022-12-17T04:42:36;82.10;;;37.70;;
18505;SDS011;9382;53.242;10.438;2022-12-17T04:45:20;71.90;;;37.20;;
18505;SDS011;9382;53.242;10.438;2022-12-17T04:48:05;79.50;;;36.53;;
18505;SDS011;9382;53.242;10.438;2022-12-17T04:50:50;75.10;;;38.43;;
18505;SDS011;9382;53.242;10.438;2022-12-17T04:53:35;74.83;;;38.17;;
18505;SDS011;9382;53.242;10.438;2022-12-17T04:56:20;75.53;;;36.17;;
18505;SDS011;9382;53.242;10.438;2022-12-17T04:59:05;81.23;;;37.33;;
18505;SDS011;9382;53.242;10.438;2022-12-17T05:01:49;72.60;;;35.13;;
18505;SDS011;9382;53.242;10.438;2022-12-17T05:04:33;80.50;;;36.03;;
18505;SDS011;9382;53.242;10.438;2022-12-17T05:07:18;75.50;;;35.80;;
18505;SDS011;9382;53.242;10.438;2022-12-17T05:10:02;74.97;;;34.67;;
18505;SDS011;9382;53.242;10.438;2022-12-17T05:12:54;77.83;;;37.10;;
18505;SDS011;9382;53.242;10.438;2022-12-17T05:15:39;74.23;;;38.13;;
18505;SDS011;9382;53.242;10.438;2022-12-17T05:18:23;75.20;;;37.20;;
18505;SDS011;9382;53.242;10.438;2022-12-17T05:21:07;76.83;;;36.83;;
18505;SDS011;9382;53.242;10.438;2022-12-17T05:23:52;81.27;;;36.13;;
18505;SDS011;9382;53.242;10.438;2022-12-17T05:26:36;76.23;;;35.30;;
18505;SDS011;9382;53.242;10.438;2022-12-17T05:29:22;73.03;;;35.27;;
18505;SDS011;9382;53.242;10.438;2022-12-17T05:32:06;79.73;;;36.57;;
18505;SDS011;9382;53.242;10.438;2022-12-17T05:34:50;80.20;;;35.83;;
18505;SDS011;9382;53.242;10.438;2022-12-17T05:37:35;78.07;;;35.90;;
18505;SDS011;9382;53.242;10.438;2022-12-17T05:40:19;78.43;;;35.20;;
18505;SDS011;9382;53.242;10.438;2022-12-17T05:43:03;73.93;;;35.33;;
18505;SDS011;9382;53.242;10.438;2022-12-17T05:45:50;75.27;;;34.60;;
18505;SDS011;9382;53.242;10.438;2022-12-17T05:48:35;74.53;;;34.37;;
18505;SDS011;9382;53.242;10.438;2022-12-17T05:51:19;74.70;;;34.30;;
18505;SDS011;9382;53.242;10.438;2022-12-17T05:54:04;73.13;;;34.63;;
18505;SDS011;9382;53.242;10.438;2022-12-17T05:56:49;76.77;;;33.10;;
18505;SDS011;9382;53.242;10.438;2022-12-17T05:59:33;85.63;;;35.57;;
18505;SDS011;9382;53.242;10.438;2022-12-17T06:02:19;78.33;;;34.70;;
18505;SDS011;9382;53.242;10.438;2022-12-17T06:05:04;79.77;;;34.33;;
18505;SDS011;9382;53.242;10.438;2022-12-17T06:08:03;73.93;;;33.23;;
18505;SDS011;9382;53.242;10.438;2022-12-17T06:10:48;80.00;;;34.53;;
18505;SDS011;9382;53.242;10.438;2022-12-17T06:13:33;78.53;;;34.47;;
18505;SDS011;9382;53.242;10.438;2022-12-17T06:16:17;78.67;;;34.13;;
18505;SDS011;9382;53.242;10.438;2022-12-17T06:19:02;80.93;;;34.53;;
18505;SDS011;9382;53.242;10.438;2022-12-17T06:21:47;74.77;;;33.60;;
18505;SDS011;9382;53.242;10.438;2022-12-17T06:24:31;72.43;;;33.53;;
18505;SDS011;9382;53.242;10.438;2022-12-17T06:27:15;76.20;;;33.80;;
18505;SDS011;9382;53.242;10.438;2022-12-17T06:29:59;80.87;;;35.40;;
18505;SDS011;9382;53.242;10.438;2022-12-17T06:32:43;77.13;;;34.43;;
18505;SDS011;9382;53.242;10.438;2022-12-17T06:35:29;77.20;;;34.87;;
18505;SDS011;9382;53.242;10.438;2022-12-17T06:38:13;74.07;;;33.47;;
18505;SDS011;9382;53.242;10.438;2022-12-17T06:40:58;74.27;;;33.47;;
18505;SDS011;9382;53.242;10.438;2022-12-17T06:43:43;76.83;;;33.10;;
18505;SDS011;9382;53.242;10.438;2022-12-17T06:46:27;79.77;;;34.77;;
18505;SDS011;9382;53.242;10.438;2022-12-17T06:49:11;75.33;;;34.33;;
18505;SDS011;9382;53.242;10.438;2022-12-17T06:51:57;75.67;;;35.97;;
18505;SDS011;9382;53.242;10.438;2022-12-17T06:54:41;75.33;;;35.03;;
18505;SDS011;9382;53.242;10.438;2022-12-17T06:57:26;87.93;;;37.53;;
18505;SDS011;9382;53.242;10.438;2022-12-17T07:00:10;82.40;;;37.07;;
18505;SDS011;9382;53.242;10.438;2022-12-17T07:02:55;72.23;;;35.43;;
18505;SDS011;9382;53.242;10.438;2022-12-17T07:05:40;79.67;;;35.70;;
18505;SDS011;9382;53.242;10.438;2022-12-17T07:08:26;78.17;;;36.77;;
18505;SDS011;9382;53.242;10.438;2022-12-17T07:11:10;73.87;;;35.30;;
18505;SDS011;9382;53.242;10.438;2022-12-17T07:13:54;71.00;;;34.20;;
18505;SDS011;9382;53.242;10.438;2022-12-17T07:16:39;73.27;;;31.93;;
18505;SDS011;9382;53.242;10.438;2022-12-17T07:19:23;72.93;;;33.50;;
18505;SDS011;9382;53.242;10.438;2022-12-17T07:22:07;75.50;;;32.10;;
18505;SDS011;9382;53.242;10.438;2022-12-17T07:24:53;71.27;;;32.20;;
18505;SDS011;9382;53.242;10.438;2022-12-17T07:27:37;70.93;;;31.87;;
18505;SDS011;9382;53.242;10.438;2022-12-17T07:30:21;75.73;;;32.37;;
18505;SDS011;9382;53.242;10.438;2022-12-17T07:33:06;73.83;;;33.63;;
18505;SDS011;9382;53.242;10.438;2022-12-17T07:35:52;75.87;;;33.70;;
18505;SDS011;9382;53.242;10.438;2022-12-17T07:38:36;76.90;;;34.03;;
18505;SDS011;9382;53.242;10.438;2022-12-17T07:41:28;81.73;;;36.33;;
18505;SDS011;9382;53.242;10.438;2022-12-17T07:44:12;73.83;;;32.80;;
18505;SDS011;9382;53.242;10.438;2022-12-17T07:46:56;74.37;;;32.57;;
18505;SDS011;9382;53.242;10.438;2022-12-17T07:49:40;76.17;;;32.70;;
18505;SDS011;9382;53.242;10.438;2022-12-17T07:52:24;74.37;;;32.73;;
18505;SDS011;9382;53.242;10.438;2022-12-17T07:55:20;74.93;;;32.23;;
18505;SDS011;9382;53.242;10.438;2022-12-17T07:58:07;71.57;;;31.47;;
18505;SDS011;9382;53.242;10.438;2022-12-17T08:00:52;76.90;;;33.80;;
18505;SDS011;9382;53.242;10.438;2022-12-17T08:03:37;78.93;;;35.10;;
18505;SDS011;9382;53.242;10.438;2022-12-17T08:06:21;84.57;;;38.17;;
18505;SDS011;9382;53.242;10.438;2022-12-17T08:09:06;78.63;;;35.90;;
18505;SDS011;9382;53.242;10.438;2022-12-17T08:11:50;81.13;;;36.63;;
18505;SDS011;9382;53.242;10.438;2022-12-17T08:14:35;77.80;;;37.67;;
18505;SDS011;9382;53.242;10.438;2022-12-17T08:17:22;80.60;;;36.30;;
18505;SDS011;9382;53.242;10.438;2022-12-17T08:20:07;84.33;;;35.77;;
18505;SDS011;9382;53.242;10.438;2022-12-17T08:22:58;80.87;;;35.00;;
18505;SDS011;9382;53.242;10.438;2022-12-17T08:25:43;76.30;;;32.43;;
18505;SDS011;9382;53.242;10.438;2022-12-17T08:28:27;80.63;;;34.63;;
18505;SDS011;9382;53.242;10.438;2022-12-17T08:31:14;79.90;;;36.03;;
18505;SDS011;9382;53.242;10.438;2022-12-17T08:33:58;72.77;;;33.13;;
18505;SDS011;9382;53.242;10.438;2022-12-17T08:36:45;73.93;;;33.83;;
18505;SDS011;9382;53.242;10.438;2022-12-17T08:39:29;76.50;;;33.00;;
18505;SDS011;9382;53.242;10.438;2022-12-17T08:42:10;72.43;;;34.63;;
18505;SDS011;9382;53.242;10.438;2022-12-17T08:44:54;78.63;;;35.67;;
18505;SDS011;9382;53.242;10.438;2022-12-17T08:47:40;94.27;;;44.40;;
18505;SDS011;9382;53.242;10.438;2022-12-17T08:50:24;97.30;;;48.30;;
18505;SDS011;9382;53.242;10.438;2022-12-17T08:53:08;76.30;;;35.67;;
18505;SDS011;9382;53.242;10.438;2022-12-17T08:55:53;75.97;;;34.17;;
18505;SDS011;9382;53.242;10.438;2022-12-17T08:58:37;73.40;;;35.17;;
18505;SDS011;9382;53.242;10.438;2022-12-17T09:01:21;73.23;;;34.13;;
18505;SDS011;9382;53.242;10.438;2022-12-17T09:04:07;76.33;;;35.13;;
18505;SDS011;9382;53.242;10.438;2022-12-17T09:06:51;73.10;;;35.50;;
18505;SDS011;9382;53.242;10.438;2022-12-17T09:09:35;70.47;;;35.13;;
18505;SDS011;9382;53.242;10.438;2022-12-17T09:12:19;69.57;;;34.53;;
18505;SDS011;9382;53.242;10.438;2022-12-17T09:15:04;71.63;;;34.77;;
18505;SDS011;9382;53.242;10.438;2022-12-17T09:17:49;77.43;;;35.70;;
18505;SDS011;9382;53.242;10.438;2022-12-17T09:20:35;76.03;;;33.93;;
18505;SDS011;9382;53.242;10.438;2022-12-17T09:23:20;65.10;;;31.90;;
18505;SDS011;9382;53.242;10.438;2022-12-17T09:26:04;72.27;;;32.40;;
18505;SDS011;9382;53.242;10.438;2022-12-17T09:28:49;62.47;;;31.50;;
18505;SDS011;9382;53.242;10.438;2022-12-17T09:31:33;63.93;;;33.23;;
18505;SDS011;9382;53.242;10.438;2022-12-17T09:34:17;57.20;;;30.10;;
18505;SDS011;9382;53.242;10.438;2022-12-17T09:37:03;62.27;;;32.47;;
18505;SDS011;9382;53.242;10.438;2022-12-17T09:39:48;59.77;;;29.93;;
18505;SDS011;9382;53.242;10.438;2022-12-17T09:42:33;53.57;;;29.03;;
18505;SDS011;9382;53.242;10.438;2022-12-17T09:45:34;53.83;;;29.30;;
18505;SDS011;9382;53.242;10.438;2022-12-17T09:48:24;52.30;;;30.97;;
18505;SDS011;9382;53.242;10.438;2022-12-17T09:51:19;49.40;;;29.33;;
18505;SDS011;9382;53.242;10.438;2022-12-17T09:54:09;49.93;;;28.50;;
18505;SDS011;9382;53.242;10.438;2022-12-17T09:56:57;47.40;;;27.53;;
18505;SDS011;9382;53.242;10.438;2022-12-17T09:59:41;42.90;;;25.77;;
18505;SDS011;9382;53.242;10.438;2022-12-17T10:02:26;39.57;;;24.47;;
18505;SDS011;9382;53.242;10.438;2022-12-17T10:05:13;50.57;;;26.53;;
18505;SDS011;9382;53.242;10.438;2022-12-17T10:08:03;47.23;;;26.33;;
18505;SDS011;9382;53.242;10.438;2022-12-17T10:10:51;39.40;;;24.20;;
18505;SDS011;9382;53.242;10.438;2022-12-17T10:13:35;41.70;;;24.07;;
18505;SDS011;9382;53.242;10.438;2022-12-17T10:16:28;39.57;;;24.23;;
18505;SDS011;9382;53.242;10.438;2022-12-17T10:19:24;41.03;;;22.63;;
18505;SDS011;9382;53.242;10.438;2022-12-17T10:22:13;38.13;;;21.80;;
18505;SDS011;9382;53.242;10.438;2022-12-17T10:25:00;37.40;;;21.87;;
18505;SDS011;9382;53.242;10.438;2022-12-17T10:27:46;33.73;;;21.17;;
18505;SDS011;9382;53.242;10.438;2022-12-17T10:30:31;37.27;;;22.13;;
18505;SDS011;9382;53.242;10.438;2022-12-17T10:33:16;36.57;;;21.90;;
18505;SDS011;9382;53.242;10.438;2022-12-17T10:36:03;36.70;;;21.17;;
18505;SDS011;9382;53.242;10.438;2022-12-17T10:38:52;34.73;;;21.20;;
18505;SDS011;9382;53.242;10.438;2022-12-17T10:41:33;37.10;;;22.03;;
18505;SDS011;9382;53.242;10.438;2022-12-17T10:44:24;37.63;;;21.50;;
18505;SDS011;9382;53.242;10.438;2022-12-17T10:47:11;33.20;;;21.00;;
18505;SDS011;9382;53.242;10.438;2022-12-17T10:49:56;35.00;;;21.03;;
18505;SDS011;9382;53.242;10.438;2022-12-17T10:52:42;34.70;;;20.53;;
18505;SDS011;9382;53.242;10.438;2022-12-17T10:55:28;36.23;;;19.90;;
18505;SDS011;9382;53.242;10.438;2022-12-17T10:58:14;32.90;;;19.53;;
18505;SDS011;9382;53.242;10.438;2022-12-17T11:01:03;37.30;;;20.47;;
18505;SDS011;9382;53.242;10.438;2022-12-17T11:03:49;33.87;;;20.23;;
18505;SDS011;9382;53.242;10.438;2022-12-17T11:06:35;30.30;;;18.90;;
18505;SDS011;9382;53.242;10.438;2022-12-17T11:09:26;33.80;;;19.03;;
18505;SDS011;9382;53.242;10.438;2022-12-17T11:12:31;30.33;;;18.20;;
18505;SDS011;9382;53.242;10.438;2022-12-17T11:15:21;30.77;;;18.13;;
18505;SDS011;9382;53.242;10.438;2022-12-17T11:18:12;29.13;;;18.40;;
18505;SDS011;9382;53.242;10.438;2022-12-17T11:21:01;34.93;;;18.67;;
18505;SDS011;9382;53.242;10.438;2022-12-17T11:23:49;32.93;;;18.33;;
18505;SDS011;9382;53.242;10.438;2022-12-17T11:26:36;33.27;;;18.73;;
18505;SDS011;9382;53.242;10.438;2022-12-17T11:29:22;33.30;;;18.17;;
18505;SDS011;9382;53.242;10.438;2022-12-17T11:32:12;32.33;;;17.80;;
18505;SDS011;9382;53.242;10.438;2022-12-17T11:35:13;31.97;;;17.57;;
18505;SDS011;9382;53.242;10.438;2022-12-17T11:38:03;31.13;;;17.83;;
18505;SDS011;9382;53.242;10.438;2022-12-17T11:40:58;30.23;;;17.73;;
18505;SDS011;9382;53.242;10.438;2022-12-17T11:43:49;31.63;;;18.07;;
18505;SDS011;9382;53.242;10.438;2022-12-17T11:46:49;31.67;;;17.83;;
18505;SDS011;9382;53.242;10.438;2022-12-17T11:49:44;29.90;;;17.73;;
18505;SDS011;9382;53.242;10.438;2022-12-17T11:52:38;31.23;;;17.47;;
18505;SDS011;9382;53.242;10.438;2022-12-17T11:55:33;27.83;;;17.00;;
18505;SDS011;9382;53.242;10.438;2022-12-17T11:58:24;27.90;;;16.93;;
18505;SDS011;9382;53.242;10.438;2022-12-17T12:01:15;27.33;;;17.03;;
18505;SDS011;9382;53.242;10.438;2022-12-17T12:04:09;26.87;;;16.57;;
18505;SDS011;9382;53.242;10.438;2022-12-17T12:07:06;31.17;;;17.50;;
18505;SDS011;9382;53.242;10.438;2022-12-17T12:10:01;27.07;;;16.33;;
18505;SDS011;9382;53.242;10.438;2022-12-17T12:12:52;33.27;;;17.10;;
18505;SDS011;9382;53.242;10.438;2022-12-17T12:15:47;27.77;;;16.27;;
18505;SDS011;9382;53.242;10.438;2022-12-17T12:18:42;27.97;;;16.40;;
18505;SDS011;9382;53.242;10.438;2022-12-17T12:21:37;28.80;;;16.37;;
18505;SDS011;9382;53.242;10.438;2022-12-17T12:24:31;28.00;;;14.93;;
18505;SDS011;9382;53.242;10.438;2022-12-17T12:27:38;28.87;;;15.57;;
18505;SDS011;9382;53.242;10.438;2022-12-17T12:30:32;25.87;;;15.17;;
18505;SDS011;9382;53.242;10.438;2022-12-17T12:33:26;24.60;;;13.93;;
18505;SDS011;9382;53.242;10.438;2022-12-17T12:36:17;20.90;;;13.60;;
18505;SDS011;9382;53.242;10.438;2022-12-17T12:39:04;20.83;;;13.80;;
18505;SDS011;9382;53.242;10.438;2022-12-17T12:41:55;22.67;;;12.83;;
18505;SDS011;9382;53.242;10.438;2022-12-17T12:44:47;22.73;;;12.97;;
18505;SDS011;9382;53.242;10.438;2022-12-17T12:47:39;20.30;;;12.63;;
18505;SDS011;9382;53.242;10.438;2022-12-17T12:50:31;23.03;;;13.33;;
18505;SDS011;9382;53.242;10.438;2022-12-17T12:53:24;20.63;;;12.20;;
18505;SDS011;9382;53.242;10.438;2022-12-17T12:56:23;20.00;;;12.37;;
18505;SDS011;9382;53.242;10.438;2022-12-17T12:59:10;20.67;;;12.70;;
18505;SDS011;9382;53.242;10.438;2022-12-17T13:01:56;20.47;;;12.50;;
18505;SDS011;9382;53.242;10.438;2022-12-17T13:04:41;18.60;;;11.30;;
18505;SDS011;9382;53.242;10.438;2022-12-17T13:07:26;19.53;;;11.87;;
18505;SDS011;9382;53.242;10.438;2022-12-17T13:09:55;21.33;;;12.43;;
18505;SDS011;9382;53.242;10.438;2022-12-17T13:12:25;19.20;;;11.47;;
18505;SDS011;9382;53.242;10.438;2022-12-17T13:14:58;17.77;;;11.53;;
18505;SDS011;9382;53.242;10.438;2022-12-17T13:17:43;18.87;;;11.70;;
18505;SDS011;9382;53.242;10.438;2022-12-17T13:20:22;18.50;;;11.43;;
18505;SDS011;9382;53.242;10.438;2022-12-17T13:22:51;19.57;;;11.70;;
18505;SDS011;9382;53.242;10.438;2022-12-17T13:25:29;19.10;;;11.93;;
18505;SDS011;9382;53.242;10.438;2022-12-17T13:27:56;20.27;;;12.27;;
18505;SDS011;9382;53.242;10.438;2022-12-17T13:30:30;18.47;;;11.60;;
18505;SDS011;9382;53.242;10.438;2022-12-17T13:33:06;22.97;;;11.97;;
18505;SDS011;9382;53.242;10.438;2022-12-17T13:35:42;20.70;;;11.97;;
18505;SDS011;9382;53.242;10.438;2022-12-17T13:38:19;18.37;;;12.13;;
18505;SDS011;9382;53.242;10.438;2022-12-17T13:40:57;19.50;;;12.27;;
18505;SDS011;9382;53.242;10.438;2022-12-17T13:43:33;19.87;;;13.00;;
18505;SDS011;9382;53.242;10.438;2022-12-17T13:46:04;20.53;;;13.30;;
18505;SDS011;9382;53.242;10.438;2022-12-17T13:48:32;20.80;;;13.27;;
18505;SDS011;9382;53.242;10.438;2022-12-17T13:51:00;22.10;;;13.60;;
18505;SDS011;9382;53.242;10.438;2022-12-17T13:53:29;20.20;;;13.10;;
18505;SDS011;9382;53.242;10.438;2022-12-17T13:55:59;21.90;;;13.40;;
18505;SDS011;9382;53.242;10.438;2022-12-17T13:58:27;20.50;;;12.90;;
18505;SDS011;9382;53.242;10.438;2022-12-17T14:01:03;22.60;;;12.87;;
18505;SDS011;9382;53.242;10.438;2022-12-17T14:03:36;21.77;;;13.20;;
18505;SDS011;9382;53.242;10.438;2022-12-17T14:06:04;23.30;;;13.27;;
18505;SDS011;9382;53.242;10.438;2022-12-17T14:08:34;22.53;;;13.33;;
18505;SDS011;9382;53.242;10.438;2022-12-17T14:11:01;23.13;;;13.80;;
18505;SDS011;9382;53.242;10.438;2022-12-17T14:13:46;23.47;;;14.47;;
18505;SDS011;9382;53.242;10.438;2022-12-17T14:16:14;23.23;;;14.43;;
18505;SDS011;9382;53.242;10.438;2022-12-17T14:18:45;27.97;;;14.87;;
18505;SDS011;9382;53.242;10.438;2022-12-17T14:21:14;26.53;;;16.13;;
18505;SDS011;9382;53.242;10.438;2022-12-17T14:23:41;29.00;;;15.70;;
18505;SDS011;9382;53.242;10.438;2022-12-17T14:26:09;29.13;;;16.43;;
18505;SDS011;9382;53.242;10.438;2022-12-17T14:28:43;27.17;;;16.63;;
18505;SDS011;9382;53.242;10.438;2022-12-17T14:31:15;27.13;;;16.40;;
18505;SDS011;9382;53.242;10.438;2022-12-17T14:33:47;30.10;;;17.67;;
18505;SDS011;9382;53.242;10.438;2022-12-17T14:36:26;28.73;;;17.43;;
18505;SDS011;9382;53.242;10.438;2022-12-17T14:38:55;31.23;;;18.23;;
18505;SDS011;9382;53.242;10.438;2022-12-17T14:41:23;29.90;;;18.97;;
18505;SDS011;9382;53.242;10.438;2022-12-17T14:44:13;36.27;;;19.07;;
18505;SDS011;9382;53.242;10.438;2022-12-17T14:46:44;34.13;;;19.60;;
18505;SDS011;9382;53.242;10.438;2022-12-17T14:49:15;34.50;;;20.93;;
18505;SDS011;9382;53.242;10.438;2022-12-17T14:51:45;33.67;;;20.80;;
18505;SDS011;9382;53.242;10.438;2022-12-17T14:54:20;34.10;;;21.40;;
18505;SDS011;9382;53.242;10.438;2022-12-17T14:56:55;38.10;;;21.37;;
18505;SDS011;9382;53.242;10.438;2022-12-17T14:59:24;35.37;;;21.23;;
18505;SDS011;9382;53.242;10.438;2022-12-17T15:01:59;37.10;;;22.70;;
18505;SDS011;9382;53.242;10.438;2022-12-17T15:04:29;35.87;;;21.03;;
18505;SDS011;9382;53.242;10.438;2022-12-17T15:06:56;36.13;;;21.53;;
18505;SDS011;9382;53.242;10.438;2022-12-17T15:09:25;36.07;;;20.90;;
18505;SDS011;9382;53.242;10.438;2022-12-17T15:11:51;37.33;;;21.33;;
18505;SDS011;9382;53.242;10.438;2022-12-17T15:14:18;35.50;;;21.30;;
18505;SDS011;9382;53.242;10.438;2022-12-17T15:16:45;38.53;;;21.03;;
18505;SDS011;9382;53.242;10.438;2022-12-17T15:19:12;35.07;;;21.57;;
18505;SDS011;9382;53.242;10.438;2022-12-17T15:21:40;33.10;;;20.53;;
18505;SDS011;9382;53.242;10.438;2022-12-17T15:24:09;36.07;;;20.93;;
18505;SDS011;9382;53.242;10.438;2022-12-17T15:26:45;36.40;;;20.57;;
18505;SDS011;9382;53.242;10.438;2022-12-17T15:29:12;36.10;;;20.90;;
18505;SDS011;9382;53.242;10.438;2022-12-17T15:31:39;34.33;;;20.87;;
18505;SDS011;9382;53.242;10.438;2022-12-17T15:34:06;34.67;;;20.90;;
18505;SDS011;9382;53.242;10.438;2022-12-17T15:36:35;35.57;;;20.33;;
18505;SDS011;9382;53.242;10.438;2022-12-17T15:39:03;35.17;;;20.53;;
18505;SDS011;9382;53.242;10.438;2022-12-17T15:41:31;36.37;;;21.70;;
18505;SDS011;9382;53.242;10.438;2022-12-17T15:44:15;35.03;;;20.70;;
18505;SDS011;9382;53.242;10.438;2022-12-17T15:46:42;34.47;;;19.87;;
18505;SDS011;9382;53.242;10.438;2022-12-17T15:49:09;35.37;;;20.33;;
18505;SDS011;9382;53.242;10.438;2022-12-17T15:51:35;34.30;;;19.33;;
18505;SDS011;9382;53.242;10.438;2022-12-17T15:54:04;36.07;;;19.03;;
18505;SDS011;9382;53.242;10.438;2022-12-17T15:56:31;34.20;;;19.97;;